Frias, Argentina
Current Conditions -  °F | °C
As of 10:00 PM on Thursday 25 Dec 2014 (Local Time) from SANT Reporting Station
Clear Clear  
Wind Chill: 82°   Ceiling: Unl
Heat Index: 85°   Visibility: 6mi
Dew Point: 68°   Wind: 0mph
Humidity: 62%   Direction: NA
Pressure: 29.74"   Gusts: NA
Location:  28.65°S, 65.15°W
Report Text: SANT 260100Z 00000KT CAVOK 28/20 Q1007
Loading
Personal Weather Stations






























Interactive Weather Map New forecast layout! Learn more

10-Day Weather Forecast

Advertisements
Track Severe Weather on mobile